Time;durP1;ratioP1;P1;durP2;ratioP2;P2;SDS_P1;SDS_P2;PMS_P1;PMS_P2;Temp;Humidity;BMP_temperature;BMP_pressure;BME280_temperature;BME280_humidity;BME280_pressure;Samples;Min_cycle;Max_cycle;Signal;HPM_P1;HPM_P2
2021/11/17 02:26:47;;;;;;;27.50;14.85;;;;;;;-4.09;87.86;101542.76;1801990;79;21320;-76
2021/11/17 02:30:20;;;;;;;29.90;15.18;;;;;;;-4.06;88.37;101542.66;1801767;79;21363;-75
2021/11/17 02:34:10;;;;;;;22.95;13.62;;;;;;;-4.02;88.51;101550.52;1802989;79;21822;-75
2021/11/17 02:37:29;;;;;;;31.10;15.23;;;;;;;-4.04;88.79;101536.81;1802977;79;21284;-76
2021/11/17 02:41:14;;;;;;;24.80;13.83;;;;;;;-4.07;89.36;101536.91;1802921;79;21153;-76
2021/11/17 02:44:49;;;;;;;23.75;13.90;;;;;;;-4.09;89.55;101534.73;1802877;79;21169;-76
2021/11/17 02:48:23;;;;;;;24.12;14.55;;;;;;;-4.24;89.68;101534.80;1802727;79;21736;-76
2021/11/17 02:51:40;;;;;;;26.07;14.90;;;;;;;-4.33;89.92;101539.13;1802922;79;21181;-75
2021/11/17 02:54:52;;;;;;;26.75;15.72;;;;;;;-4.40;90.03;101535.34;1802885;79;21355;-76
2021/11/17 02:58:20;;;;;;;25.37;14.70;;;;;;;-4.42;90.08;101534.53;1803129;79;21689;-76
2021/11/17 03:01:54;;;;;;;27.25;15.80;;;;;;;-4.42;90.23;101527.84;1803034;79;21330;-76
2021/11/17 03:05:35;;;;;;;36.58;16.82;;;;;;;-4.33;90.41;101529.77;1802871;79;21252;-76
2021/11/17 03:09:04;;;;;;;33.23;15.58;;;;;;;-4.31;89.96;101531.95;1793236;79;21819;-76
2021/11/17 03:12:38;;;;;;;31.00;17.80;;;;;;;-4.31;89.58;101527.95;1802227;79;21922;-76
2021/11/17 03:16:04;;;;;;;30.02;15.43;;;;;;;-4.38;89.40;101528.13;1802915;79;21303;-77
2021/11/17 03:19:48;;;;;;;33.33;17.00;;;;;;;-4.31;89.70;101530.62;1802443;79;21291;-76
2021/11/17 03:23:22;;;;;;;33.38;18.52;;;;;;;-4.29;89.48;101524.28;1802952;79;21185;-76
2021/11/17 03:26:46;;;;;;;25.60;15.15;;;;;;;-4.29;89.39;101533.62;1802742;79;22582;-76
2021/11/17 03:30:26;;;;;;;37.60;16.50;;;;;;;-4.24;89.30;101520.11;1801423;79;21327;-76
2021/11/17 03:34:06;;;;;;;36.48;18.32;;;;;;;-4.23;89.09;101519.21;1802983;79;21292;-76
2021/11/17 03:37:36;;;;;;;33.33;19.40;;;;;;;-4.23;88.97;101513.41;1774843;79;21822;-76
2021/11/17 03:41:28;;;;;;;26.37;16.35;;;;;;;-4.19;88.83;101515.05;1695409;84;21333;-76
2021/11/17 03:44:57;;;;;;;31.48;17.73;;;;;;;-4.19;88.71;101509.70;1718873;83;21354;-77
2021/11/17 03:48:35;;;;;;;32.63;19.73;;;;;;;-4.21;88.67;101508.00;1711564;84;21280;-77
2021/11/17 03:51:51;;;;;;;34.58;17.15;;;;;;;-4.18;88.72;101505.23;1711470;84;21355;-77
2021/11/17 03:55:21;;;;;;;30.02;16.40;;;;;;;-4.14;88.57;101499.72;1711533;84;21854;-77
2021/11/17 03:58:47;;;;;;;31.48;17.50;;;;;;;-4.14;88.36;101501.49;1711652;84;21830;-77
2021/11/17 04:02:06;;;;;;;32.17;15.50;;;;;;;-4.24;87.81;101495.60;1711542;84;21310;-76
2021/11/17 04:05:47;;;;;;;26.30;15.53;;;;;;;-4.29;88.01;101494.89;1711689;84;21303;-76
2021/11/17 04:09:06;;;;;;;24.63;14.07;;;;;;;-4.31;88.24;101503.91;1710621;84;21873;-75
2021/11/17 04:12:35;;;;;;;35.68;17.70;;;;;;;-4.45;88.40;101493.22;1711635;84;21363;-75
2021/11/17 04:16:16;;;;;;;34.88;16.37;;;;;;;-4.53;88.87;101494.40;1711565;84;21362;-75
2021/11/17 04:19:43;;;;;;;29.85;16.73;;;;;;;-4.58;89.31;101499.02;1710114;84;21337;-76
2021/11/17 04:23:21;;;;;;;26.80;14.23;;;;;;;-4.65;89.74;101493.03;1711545;84;21323;-78
2021/11/17 04:26:58;;;;;;;29.40;16.25;;;;;;;-4.70;90.21;101492.30;1711524;84;21330;-76
2021/11/17 04:30:29;;;;;;;36.00;17.70;;;;;;;-4.75;90.52;101490.22;1710151;84;21232;-76
2021/11/17 04:34:03;;;;;;;35.13;16.75;;;;;;;-4.78;90.86;101488.54;1656184;86;22644;-75
2021/11/17 04:37:46;;;;;;;45.58;20.70;;;;;;;-4.80;91.20;101490.84;1702088;84;21831;-76
2021/11/17 04:41:09;;;;;;;42.03;19.87;;;;;;;-4.92;91.40;101492.99;1682355;85;21881;-76
2021/11/17 04:44:44;;;;;;;40.28;19.30;;;;;;;-5.03;91.67;101484.47;1675724;85;21294;-76
2021/11/17 04:48:12;;;;;;;34.65;16.67;;;;;;;-5.12;91.79;101482.55;1630749;88;21378;-76
2021/11/17 04:51:56;;;;;;;33.30;17.73;;;;;;;-5.24;92.11;101486.45;1688873;85;21402;-76
2021/11/17 04:55:17;;;;;;;29.67;14.07;;;;;;;-5.34;92.53;101482.33;1703625;83;21339;-76
2021/11/17 04:59:18;;;;;;;32.88;17.48;;;;;;;-5.42;93.12;101482.55;1704699;84;21208;-76
2021/11/17 05:02:41;;;;;;;37.00;19.15;;;;;;;-5.51;93.55;101471.70;1715813;82;21830;-75
2021/11/17 05:06:09;;;;;;;33.30;17.85;;;;;;;-5.55;94.07;101477.16;1715252;82;21192;-76
2021/11/17 05:09:21;;;;;;;32.58;18.75;;;;;;;-5.57;94.48;101481.22;1679591;84;21838;-76
2021/11/17 05:12:52;;;;;;;43.38;19.60;;;;;;;-5.55;94.84;101487.40;1718762;82;21247;-76
2021/11/17 05:16:05;;;;;;;31.17;16.32;;;;;;;-5.47;95.31;101489.36;1678495;84;21363;-76
2021/11/17 05:19:34;;;;;;;39.35;16.70;;;;;;;-5.35;95.95;101501.46;1720428;83;21870;-76
2021/11/17 05:22:49;;;;;;;32.38;19.27;;;;;;;-5.24;96.46;101502.00;1683280;84;21322;-76
2021/11/17 05:26:18;;;;;;;35.92;17.30;;;;;;;-5.11;96.95;101513.17;1718511;82;21752;-76
2021/11/17 05:29:47;;;;;;;35.28;19.90;;;;;;;-4.99;97.33;101506.56;1684257;85;21781;-79
2021/11/17 05:32:57;;;;;;;39.53;21.02;;;;;;;-4.86;97.64;101505.26;1683095;85;21193;-76
2021/11/17 05:36:21;;;;;;;;;;;;;;;-4.71;97.85;101514.09;1727648;82;21295;-77
2021/11/17 05:40:05;;;;;;;37.10;18.95;;;;;;;-4.63;97.86;101505.38;1695991;83;20299;-77
2021/11/17 05:43:53;;;;;;;36.25;19.70;;;;;;;-4.56;97.89;101506.08;1711346;83;21405;-77
2021/11/17 05:47:20;;;;;;;39.88;19.98;;;;;;;-4.56;97.82;101509.17;1698405;83;21583;-76
2021/11/17 05:50:47;;;;;;;47.85;21.02;;;;;;;-4.51;98.02;101515.27;1701566;83;21318;-76
2021/11/17 05:54:19;;;;;;;35.60;17.80;;;;;;;-4.39;98.26;101521.52;1700236;83;21746;-76
2021/11/17 05:57:43;;;;;;;47.10;21.52;;;;;;;-4.27;98.47;101511.76;1674547;83;21315;-77
2021/11/17 06:01:00;;;;;;;40.70;20.68;;;;;;;-4.17;98.49;101505.63;1643821;85;21279;-76
2021/11/17 06:04:14;;;;;;;38.55;20.23;;;;;;;-4.04;98.55;101509.62;1640642;85;21353;-77
2021/11/17 06:07:20;;;;;;;39.78;20.90;;;;;;;-3.91;98.63;101510.91;1666535;84;21347;-77
2021/11/17 06:10:31;;;;;;;42.75;21.52;;;;;;;-3.78;98.65;101510.48;1640879;84;21213;-77
2021/11/17 06:13:41;;;;;;;35.43;19.70;;;;;;;-3.65;98.65;101510.45;1614721;85;21231;-78
2021/11/17 06:17:00;;;;;;;36.75;18.77;;;;;;;-3.54;98.58;101508.70;1673502;83;21790;-77
2021/11/17 06:20:15;;;;;;;43.98;21.15;;;;;;;-3.42;98.58;101505.11;1656965;84;21390;-78
2021/11/17 06:23:39;;;;;;;40.10;20.20;;;;;;;-3.32;98.42;101498.94;1659603;83;21231;-78
2021/11/17 06:30:34;;;;;;;43.60;22.27;;;;;;;-3.07;98.23;101505.53;1682438;83;21364;-78
2021/11/17 06:33:39;;;;;;;39.92;20.05;;;;;;;-3.04;97.74;101508.57;1639204;86;21506;-79
2021/11/17 06:36:46;;;;;;;41.75;19.87;;;;;;;-3.05;97.61;101501.02;1666245;84;21235;-78
2021/11/17 06:39:54;;;;;;;43.20;22.42;;;;;;;-3.01;97.67;101500.40;1657157;85;21212;-78
2021/11/17 06:43:02;;;;;;;41.50;21.07;;;;;;;-2.96;97.84;101495.30;1669460;84;21282;-77
2021/11/17 06:46:09;;;;;;;44.63;22.48;;;;;;;-2.91;97.99;101487.95;1668498;84;22607;-77
2021/11/17 06:49:15;;;;;;;40.10;21.55;;;;;;;-2.84;98.20;101488.55;1654841;85;21227;-77
2021/11/17 06:52:20;;;;;;;46.85;21.90;;;;;;;-2.76;98.46;101487.78;1666115;84;21251;-77
2021/11/17 06:55:25;;;;;;;46.13;21.27;;;;;;;-2.66;98.69;101481.58;1668274;84;21219;-76
2021/11/17 06:58:30;;;;;;;38.00;19.62;;;;;;;-2.51;99.00;101475.58;1666468;84;21373;-76
2021/11/17 07:01:39;;;;;;;45.63;21.90;;;;;;;-2.38;98.97;101476.80;1664026;84;21258;-76
2021/11/17 07:04:45;;;;;;;37.30;19.15;;;;;;;-2.29;98.75;101477.36;1668787;84;21471;-76
2021/11/17 07:26:33;;;;;;;39.83;20.65;;;;;;;-1.68;98.20;101478.67;1652398;82;21236;-77
2021/11/17 07:29:40;;;;;;;46.33;23.85;;;;;;;-1.59;98.03;101480.94;1681630;83;21858;-77
2021/11/17 07:32:52;;;;;;;45.12;22.20;;;;;;;-1.53;97.71;101476.62;1654270;83;21229;-77
2021/11/17 07:35:58;;;;;;;38.78;20.62;;;;;;;-1.42;97.74;101474.77;1683210;83;21223;-79
2021/11/17 07:39:03;;;;;;;35.95;18.52;;;;;;;-1.29;97.80;101479.49;1681299;83;21227;-77
2021/11/17 07:42:09;;;;;;;35.70;18.87;;;;;;;-1.16;97.39;101474.90;1681443;83;21198;-80
2021/11/17 07:45:15;;;;;;;39.53;17.48;;;;;;;-1.11;96.03;101477.76;1672826;83;21381;-85
2021/11/17 07:48:29;;;;;;;35.40;19.62;;;;;;;-1.06;95.21;101470.82;1674675;83;21517;-78
2021/11/17 07:51:38;;;;;;;36.05;18.15;;;;;;;-0.99;93.99;101471.38;1669692;82;21183;-77
2021/11/17 07:54:42;;;;;;;33.50;17.48;;;;;;;-0.95;93.18;101474.33;1672849;83;21202;-78
2021/11/17 07:57:52;;;;;;;31.75;15.93;;;;;;;-0.91;92.47;101476.79;1669595;83;21801;-76
2021/11/17 08:01:04;;;;;;;27.77;15.40;;;;;;;-0.84;91.97;101468.84;1660962;83;21191;-77
2021/11/17 08:04:14;;;;;;;27.52;15.43;;;;;;;-0.75;91.32;101470.66;1680896;83;21446;-78
2021/11/17 08:07:26;;;;;;;36.00;16.67;;;;;;;-0.68;91.07;101471.63;1664445;83;21215;-77
2021/11/17 08:10:39;;;;;;;26.97;16.50;;;;;;;-0.57;91.30;101471.09;1678549;83;21984;-78
2021/11/17 08:13:50;;;;;;;28.98;16.07;;;;;;;-0.48;90.78;101467.08;1685075;83;21274;-77
2021/11/17 08:16:56;;;;;;;27.20;15.60;;;;;;;-0.41;90.19;101462.66;1676463;83;21236;-78
2021/11/17 08:20:02;;;;;;;27.90;15.40;;;;;;;-0.33;89.41;101467.19;1647138;85;21470;-78
2021/11/17 08:23:09;;;;;;;27.27;15.40;;;;;;;-0.28;88.77;101458.41;1626751;86;21234;-77
2021/11/17 08:26:22;;;;;;;24.85;14.10;;;;;;;-0.20;88.11;101460.67;1632310;84;21631;-80
2021/11/17 08:29:36;;;;;;;24.45;14.68;;;;;;;-0.11;87.86;101462.02;1633082;85;21346;-78
2021/11/17 08:32:42;;;;;;;20.03;11.63;;;;;;;-0.07;86.58;101442.95;1679718;83;21320;-79
2021/11/17 08:35:50;;;;;;;24.35;13.55;;;;;;;0.02;86.12;101446.13;1679104;83;21357;-78
2021/11/17 08:38:58;;;;;;;30.02;14.50;;;;;;;0.10;85.66;101440.73;1679140;83;21491;-78
2021/11/17 08:42:06;;;;;;;30.32;14.90;;;;;;;0.15;85.35;101444.04;1678777;83;21620;-78
2021/11/17 08:45:12;;;;;;;24.40;12.90;;;;;;;0.20;85.16;101437.94;1680108;83;21266;-79
2021/11/17 08:48:21;;;;;;;27.35;13.48;;;;;;;0.29;84.97;101431.67;1680069;83;21228;-77
2021/11/17 08:51:30;;;;;;;37.13;24.92;;;;;;;0.33;84.31;101425.14;1648491;85;21481;-77
2021/11/17 08:54:36;;;;;;;33.65;23.92;;;;;;;0.38;83.84;101421.27;1674609;82;21204;-77
2021/11/17 08:57:41;;;;;;;33.55;23.85;;;;;;;0.46;83.66;101428.91;1677433;83;21243;-79
2021/11/17 09:00:47;;;;;;;50.10;38.45;;;;;;;0.54;82.01;101418.59;1649680;84;21215;-79
2021/11/17 09:03:54;;;;;;;27.00;15.63;;;;;;;0.60;81.11;101420.94;1676163;83;21619;-77
2021/11/17 09:06:59;;;;;;;64.70;49.10;;;;;;;0.59;79.61;101421.03;1681168;83;21362;-77
2021/11/17 09:10:05;;;;;;;24.37;14.13;;;;;;;0.63;79.33;101419.42;1650689;83;21211;-77
2021/11/17 09:13:14;;;;;;;74.90;59.50;;;;;;;0.68;78.35;101418.69;1679216;83;21247;-78
2021/11/17 09:16:34;;;;;;;28.07;18.65;;;;;;;0.76;78.09;101409.70;1654872;84;21335;-77
2021/11/17 09:19:44;;;;;;;33.13;26.42;;;;;;;0.80;77.97;101406.37;1635183;85;21228;-78
2021/11/17 09:22:54;;;;;;;63.95;51.80;;;;;;;0.82;75.03;101403.58;1678017;83;21318;-77
2021/11/17 09:25:59;;;;;;;22.17;10.65;;;;;;;0.86;73.97;101394.38;1678153;83;22643;-79
2021/11/17 09:29:06;;;;;;;22.22;11.80;;;;;;;0.90;72.38;101387.86;1685258;83;21221;-77
2021/11/17 09:32:14;;;;;;;15.72;9.05;;;;;;;0.96;73.19;101376.72;1685853;83;21259;-77
2021/11/17 09:35:21;;;;;;;25.37;14.45;;;;;;;1.03;73.54;101380.77;1687312;83;21214;-78
2021/11/17 09:38:31;;;;;;;26.97;14.95;;;;;;;1.12;72.17;101371.30;1685185;83;21263;-80
2021/11/17 09:41:56;;;;;;;20.68;10.58;;;;;;;1.17;71.81;101369.19;1689600;83;21644;-77
2021/11/17 09:45:03;;;;;;;25.25;13.25;;;;;;;1.20;70.92;101360.45;1687267;83;21165;-78
2021/11/17 09:48:10;;;;;;;23.47;15.25;;;;;;;1.26;70.60;101356.03;1679511;83;21188;-78
2021/11/17 09:51:20;;;;;;;26.80;15.72;;;;;;;1.34;70.47;101350.20;1688587;84;21303;-77
2021/11/17 09:54:38;;;;;;;20.80;12.68;;;;;;;1.43;70.80;101351.48;1683149;83;21259;-77
2021/11/17 09:57:47;;;;;;;28.32;13.70;;;;;;;1.50;69.67;101355.05;1680684;83;21334;-77
2021/11/17 10:01:05;;;;;;;26.25;18.37;;;;;;;1.59;68.76;101354.11;1691047;83;21616;-76
2021/11/17 10:04:27;;;;;;;17.90;10.30;;;;;;;1.63;67.17;101356.52;1688165;83;21957;-77
2021/11/17 10:15:03;;;;;;;23.38;12.18;;;;;;;1.82;67.59;101350.86;1684950;83;21208;-77
2021/11/17 10:18:19;;;;;;;27.25;12.25;;;;;;;1.86;67.65;101346.16;1684229;83;21203;-77
2021/11/17 10:21:40;;;;;;;18.35;12.03;;;;;;;1.93;67.79;101352.89;1676039;83;21334;-78
2021/11/17 10:24:58;;;;;;;26.73;18.15;;;;;;;1.98;66.65;101357.06;1692213;83;21321;-77
2021/11/17 10:28:18;;;;;;;20.32;11.20;;;;;;;2.05;66.06;101352.13;1658009;83;21273;-77
2021/11/17 10:31:40;;;;;;;26.68;19.67;;;;;;;2.10;64.69;101356.76;1676176;83;21220;-77
2021/11/17 10:35:05;;;;;;;30.95;22.77;;;;;;;2.10;64.82;101336.52;1688194;83;21950;-77
2021/11/17 10:38:18;;;;;;;29.07;18.77;;;;;;;2.14;64.21;101342.11;1685912;83;22621;-78
2021/11/17 10:41:33;;;;;;;18.00;11.68;;;;;;;2.20;63.76;101339.02;1685266;83;21354;-78
2021/11/17 10:45:08;;;;;;;19.00;12.82;;;;;;;2.26;63.52;101338.64;1685569;83;21354;-78
2021/11/17 10:48:16;;;;;;;20.62;11.05;;;;;;;2.29;63.17;101333.02;1684875;83;21196;-78
2021/11/17 10:51:39;;;;;;;15.60;10.25;;;;;;;2.33;62.82;101333.70;1668676;83;21402;-78
2021/11/17 10:54:56;;;;;;;31.35;24.70;;;;;;;2.37;62.48;101331.20;1685676;83;21317;-78
2021/11/17 10:58:02;;;;;;;24.35;17.73;;;;;;;2.43;60.92;101331.28;1668163;83;21248;-77
2021/11/17 11:01:27;;;;;;;21.40;12.73;;;;;;;2.46;58.71;101327.91;1687197;83;22153;-79
2021/11/17 11:04:44;;;;;;;15.35;9.60;;;;;;;2.49;59.03;101321.41;1669453;83;21314;-77
2021/11/17 11:08:03;;;;;;;19.98;9.18;;;;;;;2.56;59.33;101324.12;1688494;83;21328;-78
2021/11/17 11:11:09;;;;;;;14.25;7.75;;;;;;;2.61;58.18;101318.41;1692316;83;21626;-78
2021/11/17 11:14:56;;;;;;;;;;;;;;;;;;;;;
2021/11/17 11:18:22;;;;;;;45.00;32.70;;;;;;;2.73;57.02;101318.94;1692942;83;21333;-79
2021/11/17 11:21:55;;;;;;;23.25;11.68;;;;;;;2.73;57.78;101314.43;1691631;83;21196;-77
2021/11/17 11:25:09;;;;;;;13.68;8.70;;;;;;;2.77;58.46;101315.93;1688106;83;21874;-78
2021/11/17 11:28:50;;;;;;;14.10;7.30;;;;;;;2.84;57.85;101308.30;1673502;83;21274;-77
2021/11/17 11:32:21;;;;;;;13.55;6.40;;;;;;;2.89;57.97;101314.75;1681088;83;21362;-78
2021/11/17 11:35:29;;;;;;;10.88;7.17;;;;;;;2.96;56.56;101303.41;1673418;83;21200;-78
2021/11/17 11:38:41;;;;;;;10.95;5.97;;;;;;;3.01;56.97;101305.34;1653002;83;21518;-78
2021/11/17 11:42:28;;;;;;;15.85;8.25;;;;;;;3.05;56.61;101304.63;1679534;83;21658;-78
2021/11/17 11:45:38;;;;;;;14.00;6.65;;;;;;;3.05;56.26;101304.14;1681257;83;21342;-78
2021/11/17 11:49:15;;;;;;;11.25;7.05;;;;;;;3.06;55.57;101298.28;1675188;83;21558;-77
2021/11/17 11:52:35;;;;;;;10.23;5.37;;;;;;;3.08;54.63;101303.08;1679840;83;21322;-77
2021/11/17 11:56:04;;;;;;;13.00;7.47;;;;;;;3.12;54.29;101301.91;1682143;83;21415;-78
2021/11/17 11:59:21;;;;;;;9.08;5.62;;;;;;;3.13;54.14;101299.58;1677728;83;21255;-76
2021/11/17 12:02:23;;;;;;;7.97;4.72;;;;;;;3.14;53.50;101291.84;1671427;83;21507;-76
2021/11/17 12:05:49;;;;;;;14.03;6.40;;;;;;;3.11;52.31;101294.77;1679278;83;21207;-77
2021/11/17 12:09:29;;;;;;;11.18;6.72;;;;;;;3.13;52.75;101296.88;1674752;83;21216;-77
2021/11/17 12:19:59;;;;;;;9.53;5.87;;;;;;;3.14;52.76;101297.25;1678295;83;22271;-79
2021/11/17 12:23:15;;;;;;;9.53;4.90;;;;;;;3.15;52.81;101297.63;1682531;83;21335;-77
2021/11/17 12:26:37;;;;;;;9.78;5.47;;;;;;;3.15;51.74;101293.56;1675130;83;21378;-77
2021/11/17 12:33:38;;;;;;;9.10;4.55;;;;;;;3.14;51.15;101294.54;1717221;81;21255;-77
2021/11/17 12:37:02;;;;;;;8.70;5.08;;;;;;;3.10;50.73;101289.45;1717147;81;21202;-78
2021/11/17 12:40:22;;;;;;;11.25;5.42;;;;;;;3.08;50.97;101285.51;1719367;81;21634;-77
2021/11/17 12:43:47;;;;;;;7.45;5.08;;;;;;;3.07;51.92;101276.53;1721165;81;21501;-78
2021/11/17 12:47:09;;;;;;;11.40;5.05;;;;;;;3.07;51.92;101276.53;1698925;81;21196;-75
2021/11/17 12:50:23;;;;;;;11.18;6.35;;;;;;;3.07;52.06;101268.91;1678698;83;21239;-79
2021/11/17 12:53:45;;;;;;;13.30;7.10;;;;;;;3.04;52.42;101269.11;1729937;81;21852;-77
2021/11/17 12:57:04;;;;;;;12.95;6.97;;;;;;;2.98;52.75;101268.19;1695846;81;21191;-77
2021/11/17 13:00:20;;;;;;;10.63;6.15;;;;;;;2.93;53.47;101267.15;1677161;83;21157;-79
2021/11/17 13:03:41;;;;;;;10.82;5.83;;;;;;;2.85;53.79;101259.17;1676024;83;21884;-78
2021/11/17 13:06:57;;;;;;;16.60;6.30;;;;;;;2.79;54.15;101264.52;1713039;81;21319;-78
2021/11/17 13:10:09;;;;;;;13.90;6.33;;;;;;;2.77;54.29;101266.44;1685700;83;21208;-78
2021/11/17 13:13:30;;;;;;;17.35;6.08;;;;;;;2.73;54.32;101267.15;1708933;81;21205;-76
2021/11/17 13:16:46;;;;;;;13.88;6.85;;;;;;;2.69;54.46;101263.41;1689774;83;21307;-77
2021/11/17 13:19:51;;;;;;;10.72;5.15;;;;;;;2.65;54.93;101257.81;1676983;83;22691;-77
2021/11/17 13:23:00;;;;;;;13.68;6.45;;;;;;;2.61;55.07;101270.66;1653784;85;21140;-77
2021/11/17 13:26:21;;;;;;;14.95;6.17;;;;;;;2.57;55.14;101263.72;1682108;83;21757;-77
2021/11/17 13:29:33;;;;;;;10.30;6.10;;;;;;;2.51;55.35;101265.00;1689085;83;21327;-76
2021/11/17 13:32:44;;;;;;;11.60;5.83;;;;;;;2.46;55.67;101270.33;1710603;80;21898;-77
2021/11/17 13:35:48;;;;;;;;;;;;;;;2.41;55.95;101267.93;1707640;81;21297;-77
2021/11/17 13:39:04;;;;;;;11.28;5.67;;;;;;;2.35;56.06;101267.45;1723080;81;20306;-77
2021/11/17 13:42:11;;;;;;;13.25;6.17;;;;;;;2.29;56.19;101265.53;1719319;81;21180;-77
2021/11/17 13:45:23;;;;;;;19.77;7.20;;;;;;;2.25;56.25;101266.69;1680677;82;21208;-77
2021/11/17 13:48:33;;;;;;;16.73;6.78;;;;;;;2.22;56.29;101275.50;1689771;83;21191;-76
2021/11/17 13:51:38;;;;;;;13.23;6.10;;;;;;;2.15;56.35;101269.61;1660060;84;21371;-77
2021/11/17 13:54:43;;;;;;;11.50;5.90;;;;;;;2.09;56.44;101271.36;1688994;82;22452;-75
2021/11/17 13:57:50;;;;;;;15.18;6.47;;;;;;;2.01;56.55;101265.09;1656963;84;21520;-77
2021/11/17 14:00:57;;;;;;;12.37;7.30;;;;;;;1.93;56.78;101255.75;1694216;82;21345;-78
2021/11/17 14:04:03;;;;;;;16.75;6.53;;;;;;;1.85;57.09;101255.40;1689805;83;21930;-77
2021/11/17 14:07:08;;;;;;;15.35;6.67;;;;;;;1.78;57.36;101260.30;1682436;82;21212;-76
2021/11/17 14:10:17;;;;;;;14.45;7.30;;;;;;;1.68;57.61;101255.96;1685690;84;21497;-75
2021/11/17 14:13:22;;;;;;;11.80;6.47;;;;;;;1.59;57.84;101256.53;1688330;84;21393;-75
2021/11/17 14:16:27;;;;;;;17.55;7.83;;;;;;;1.48;58.12;101265.30;1682932;82;21323;-77
2021/11/17 14:19:34;;;;;;;17.50;7.80;;;;;;;1.39;58.34;101258.27;1681606;84;21343;-76
2021/11/17 14:22:39;;;;;;;23.70;9.50;;;;;;;1.26;58.68;101264.88;1682125;82;21267;-76
2021/11/17 14:25:50;;;;;;;21.42;9.23;;;;;;;1.14;59.00;101262.47;1658862;85;21870;-77
2021/11/17 14:29:03;;;;;;;23.57;10.18;;;;;;;1.05;59.39;101268.89;1647580;85;21321;-77
2021/11/17 14:32:13;;;;;;;23.20;9.65;;;;;;;0.99;59.62;101268.78;1686041;84;21382;-76
2021/11/17 14:35:18;;;;;;;18.62;9.13;;;;;;;0.92;59.85;101270.09;1688416;82;21580;-78
2021/11/17 14:38:25;;;;;;;21.68;9.35;;;;;;;0.85;60.20;101263.31;1696881;82;21252;-78
2021/11/17 14:41:31;;;;;;;20.30;10.08;;;;;;;0.78;60.61;101257.92;1698738;82;21857;-76
2021/11/17 14:44:35;;;;;;;18.95;8.73;;;;;;;0.71;61.09;101252.91;1654861;85;21217;-76
2021/11/17 14:47:40;;;;;;;23.80;10.28;;;;;;;0.67;61.65;101251.34;1690423;84;21596;-76
2021/11/17 14:50:46;;;;;;;22.15;8.83;;;;;;;0.64;62.30;101246.61;1658904;85;21241;-77
2021/11/17 14:53:54;;;;;;;19.62;9.38;;;;;;;0.59;62.83;101249.58;1672331;84;21619;-77
2021/11/17 14:57:00;;;;;;;19.82;9.43;;;;;;;0.55;63.30;101252.53;1656528;84;21383;-76
2021/11/17 15:00:04;;;;;;;26.37;9.48;;;;;;;0.50;63.72;101256.36;1733479;82;21301;-76
2021/11/17 15:03:09;;;;;;;22.13;9.48;;;;;;;0.42;64.11;101246.50;1733610;82;21198;-76
2021/11/17 15:06:14;;;;;;;20.02;9.90;;;;;;;0.37;64.78;101243.69;1732763;82;21388;-76
2021/11/17 15:09:19;;;;;;;23.42;8.43;;;;;;;0.33;65.12;101251.55;1673664;84;21875;-76
2021/11/17 15:12:30;;;;;;;18.52;9.43;;;;;;;0.28;65.62;101249.12;1703444;82;21284;-76
2021/11/17 15:15:45;;;;;;;26.85;11.38;;;;;;;0.25;66.02;101250.18;1702008;84;21327;-76
2021/11/17 15:18:53;;;;;;;39.00;13.50;;;;;;;0.23;66.27;101252.08;1700414;84;21887;-76
2021/11/17 15:21:58;;;;;;;30.92;12.15;;;;;;;0.20;66.67;101255.44;1734409;82;21271;-76
2021/11/17 15:25:04;;;;;;;27.80;12.37;;;;;;;0.14;66.92;101263.84;1707442;84;21367;-76
2021/11/17 15:28:16;;;;;;;26.07;12.30;;;;;;;0.08;67.24;101265.53;1732546;82;21751;-76
2021/11/17 15:31:29;;;;;;;32.88;13.62;;;;;;;0.02;67.58;101261.38;1706782;84;21335;-76
2021/11/17 15:34:34;;;;;;;40.38;13.48;;;;;;;-0.05;67.89;101266.23;1734198;82;21237;-76
2021/11/17 15:37:41;;;;;;;41.77;14.50;;;;;;;-0.09;68.30;101265.15;1735727;82;21302;-75
2021/11/17 15:40:54;;;;;;;44.13;16.07;;;;;;;-0.14;68.61;101265.41;1735466;82;21225;-77
2021/11/17 15:44:00;;;;;;;49.75;16.27;;;;;;;-0.16;68.88;101263.73;1704049;82;21955;-77
2021/11/17 15:47:14;;;;;;;42.33;16.52;;;;;;;-0.18;69.06;101271.03;1703480;84;21814;-77
2021/11/17 15:50:37;;;;;;;47.27;17.05;;;;;;;-0.22;69.25;101258.22;1672604;85;21363;-77
2021/11/17 15:53:41;;;;;;;58.17;19.02;;;;;;;-0.21;69.42;101264.47;1703987;84;21263;-77
2021/11/17 15:56:46;;;;;;;60.00;17.87;;;;;;;-0.22;69.72;101261.39;1674109;85;21399;-78
2021/11/17 15:59:52;;;;;;;41.05;15.43;;;;;;;-0.23;69.88;101262.35;1702517;84;21682;-77
2021/11/17 16:02:59;;;;;;;53.98;18.23;;;;;;;-0.23;70.02;101261.01;1704488;84;21307;-77
2021/11/17 16:06:07;;;;;;;42.03;18.50;;;;;;;-0.29;70.18;101260.36;1703615;84;21878;-77
2021/11/17 16:09:14;;;;;;;58.63;17.95;;;;;;;-0.32;70.32;101254.31;1702815;84;21322;-78
2021/11/17 16:12:19;;;;;;;46.58;17.75;;;;;;;-0.34;70.38;101250.81;1701714;84;21254;-77
2021/11/17 16:15:27;;;;;;;43.52;16.70;;;;;;;-0.35;70.37;101253.98;1699592;84;21855;-77
2021/11/17 16:18:33;;;;;;;48.10;18.02;;;;;;;-0.36;70.44;101256.77;1671164;86;21363;-78
2021/11/17 16:21:39;;;;;;;42.93;16.97;;;;;;;-0.39;70.42;101256.44;1652023;87;21347;-77
2021/11/17 16:28:21;;;;;;;51.88;16.50;;;;;;;-0.40;70.48;101253.38;1703631;83;21858;-77
2021/11/17 16:31:30;;;;;;;39.18;17.32;;;;;;;-0.44;70.53;101246.42;1717067;83;21357;-78
2021/11/17 16:34:36;;;;;;;41.73;17.57;;;;;;;-0.45;70.62;101242.00;1717626;83;21339;-77
2021/11/17 16:37:41;;;;;;;43.87;16.62;;;;;;;-0.45;70.72;101242.00;1715000;83;21330;-76
2021/11/17 16:40:50;;;;;;;56.08;16.30;;;;;;;-0.46;70.77;101234.90;1762630;81;21363;-76
2021/11/17 16:43:56;;;;;;;;;;;;;;;-0.46;70.77;101236.72;1742415;81;21192;-76
2021/11/17 16:47:01;;;;;;;51.70;17.17;;;;;;;-0.49;70.82;101240.42;1738965;82;20298;-76
2021/11/17 16:50:07;;;;;;;38.60;15.72;;;;;;;-0.51;70.93;101242.34;1738168;82;21362;-76
2021/11/17 16:53:14;;;;;;;37.63;17.37;;;;;;;-0.54;70.99;101241.16;1739484;82;21180;-76
2021/11/17 16:56:19;;;;;;;39.78;17.85;;;;;;;-0.55;70.99;101246.14;1739256;82;21294;-76
2021/11/17 16:59:25;;;;;;;46.83;17.70;;;;;;;-0.58;71.03;101248.98;1739126;82;21873;-76
2021/11/17 17:02:31;;;;;;;43.15;18.60;;;;;;;-0.64;70.95;101248.84;1739692;82;21298;-76
2021/11/17 17:05:36;;;;;;;59.80;18.07;;;;;;;-0.66;71.03;101253.89;1739009;82;21968;-76
2021/11/17 17:08:42;;;;;;;59.00;17.70;;;;;;;-0.66;71.08;101255.23;1739465;82;21861;-77
2021/11/17 17:11:47;;;;;;;33.20;16.52;;;;;;;-0.68;71.19;101249.95;1739410;82;21231;-76
2021/11/17 17:14:54;;;;;;;42.58;18.87;;;;;;;-0.68;71.37;101242.37;1737856;82;21296;-76
2021/11/17 17:18:00;;;;;;;42.15;17.65;;;;;;;-0.68;71.35;101245.92;1737710;82;21814;-77
2021/11/17 17:21:08;;;;;;;51.92;18.07;;;;;;;-0.74;71.53;101246.73;1736313;82;21192;-76
2021/11/17 17:24:14;;;;;;;67.58;18.82;;;;;;;-0.83;71.56;101247.61;1738368;82;21321;-76
2021/11/17 17:27:19;;;;;;;45.25;18.02;;;;;;;-0.85;71.72;101238.78;1738147;81;21315;-76
2021/11/17 17:30:31;;;;;;;47.60;18.95;;;;;;;-0.86;71.52;101235.67;1738802;82;21294;-76
2021/11/17 17:33:38;;;;;;;39.98;17.77;;;;;;;-0.92;71.79;101240.03;1739693;82;21756;-77
2021/11/17 17:36:45;;;;;;;35.80;16.48;;;;;;;-0.99;72.17;101234.56;1737500;82;21350;-77
2021/11/17 17:39:52;;;;;;;42.53;17.65;;;;;;;-1.06;72.67;101232.69;1737147;82;21215;-76
2021/11/17 17:42:59;;;;;;;52.60;19.20;;;;;;;-1.10;73.22;101238.30;1737112;82;21176;-76
2021/11/17 17:46:05;;;;;;;54.05;21.75;;;;;;;-1.14;73.51;101232.69;1737107;82;21196;-75
2021/11/17 17:49:11;;;;;;;47.62;20.00;;;;;;;-1.16;73.79;101227.41;1737355;82;21937;-76
2021/11/17 17:52:17;;;;;;;47.45;20.68;;;;;;;-1.18;73.97;101227.08;1736743;82;21350;-76
2021/11/17 17:55:24;;;;;;;46.18;18.52;;;;;;;-1.18;74.04;101231.97;1735544;82;21200;-76
2021/11/17 17:58:28;;;;;;;39.30;18.65;;;;;;;-1.16;73.73;101238.62;1736994;82;21317;-76
2021/11/17 18:01:35;;;;;;;41.28;15.65;;;;;;;-1.16;73.76;101234.59;1735898;82;21314;-76
2021/11/17 18:04:40;;;;;;;42.27;16.35;;;;;;;-1.15;73.89;101232.30;1738012;82;21862;-76
2021/11/17 18:07:47;;;;;;;42.35;15.83;;;;;;;-1.17;73.86;101227.50;1736683;82;21224;-76